Time;durP1;ratioP1;P1;durP2;ratioP2;P2;SDS_P1;SDS_P2;PMS_P1;PMS_P2;Temp;Humidity;BMP_temperature;BMP_pressure;BME280_temperature;BME280_humidity;BME280_pressure;Samples;Min_cycle;Max_cycle;Signal;HPM_P1;HPM_P2
2021/09/15 00:01:46;;;;;;;;;8.33;8.33;;;;;;;;5052223;28;45453;-79
2021/09/15 00:04:11;;;;;;;;;12.67;7.00;;;;;;;;5034688;28;47202;-79
2021/09/15 00:06:36;;;;;;;;;7.67;7.67;;;;;;;;5052492;28;45605;-79
2021/09/15 00:09:02;;;;;;;;;6.00;5.75;;;;;;;;5052610;28;45410;-80
2021/09/15 00:11:27;;;;;;;;;7.00;7.00;;;;;;;;5045026;28;45638;-80
2021/09/15 00:13:52;;;;;;;;;9.00;6.67;;;;;;;;5049939;28;45519;-79
2021/09/15 00:16:17;;;;;;;;;6.33;6.33;;;;;;;;5051164;28;45574;-79
2021/09/15 00:18:43;;;;;;;;;8.00;6.33;;;;;;;;5052911;28;47867;-80
2021/09/15 00:21:08;;;;;;;;;8.00;7.33;;;;;;;;5053105;28;45414;-79
2021/09/15 00:23:33;;;;;;;;;6.00;6.00;;;;;;;;5055465;28;45977;-80
2021/09/15 00:25:58;;;;;;;;;6.33;6.33;;;;;;;;5037947;28;45496;-80
2021/09/15 00:28:24;;;;;;;;;5.00;5.00;;;;;;;;5061258;28;45986;-79
2021/09/15 00:30:49;;;;;;;;;6.67;6.33;;;;;;;;5039005;28;45394;-80
2021/09/15 00:33:14;;;;;;;;;6.00;6.00;;;;;;;;5055970;28;45481;-80
2021/09/15 00:35:39;;;;;;;;;7.67;6.33;;;;;;;;5056183;28;45323;-80
2021/09/15 00:38:04;;;;;;;;;8.33;6.67;;;;;;;;5055487;28;45332;-80
2021/09/15 00:40:29;;;;;;;;;9.00;6.33;;;;;;;;5055030;28;45293;-80
2021/09/15 00:42:55;;;;;;;;;8.00;7.00;;;;;;;;5037914;28;48429;-80
2021/09/15 00:45:20;;;;;;;;;6.25;4.00;;;;;;;;5055668;28;45370;-79
2021/09/15 00:47:45;;;;;;;;;4.67;4.67;;;;;;;;5055989;28;45253;-79
2021/09/15 00:50:11;;;;;;;;;5.33;4.33;;;;;;;;5055877;28;45660;-79
2021/09/15 00:52:36;;;;;;;;;7.00;7.00;;;;;;;;5055380;28;45454;-79
2021/09/15 00:55:02;;;;;;;;;4.00;4.00;;;;;;;;5056597;28;45579;-79
2021/09/15 00:57:27;;;;;;;;;6.50;4.75;;;;;;;;5054965;28;45404;-80
2021/09/15 00:59:53;;;;;;;;;4.67;4.67;;;;;;;;5055073;28;45474;-79
2021/09/15 01:02:18;;;;;;;;;6.00;4.75;;;;;;;;5055155;28;46135;-79
2021/09/15 01:04:44;;;;;;;;;5.67;5.00;;;;;;;;5055286;28;45474;-79
2021/09/15 01:07:10;;;;;;;;;7.50;4.25;;;;;;;;5052197;28;45425;-79
2021/09/15 01:09:36;;;;;;;;;5.00;5.00;;;;;;;;5057077;28;45414;-80
2021/09/15 01:12:01;;;;;;;;;6.00;6.00;;;;;;;;5033349;28;46068;-80
2021/09/15 01:14:27;;;;;;;;;6.50;5.75;;;;;;;;5053772;28;45637;-79
2021/09/15 01:16:58;;;;;;;;;8.75;5.00;;;;;;;;5053635;28;45449;-79
2021/09/15 01:19:24;;;;;;;;;5.00;5.00;;;;;;;;5053753;28;45882;-79
2021/09/15 01:21:56;;;;;;;;;8.00;7.00;;;;;;;;5053646;28;46353;-79
2021/09/15 01:24:22;;;;;;;;;5.00;4.00;;;;;;;;5054813;28;45473;-79
2021/09/15 01:26:47;;;;;;;;;7.50;5.75;;;;;;;;5058203;28;45680;-79
2021/09/15 01:29:15;;;;;;;;;8.50;4.00;;;;;;;;5054524;28;45401;-79
2021/09/15 01:31:53;;;;;;;;;6.25;6.00;;;;;;;;5053700;28;45479;-80
2021/09/15 01:34:18;;;;;;;;;10.00;7.00;;;;;;;;5051057;28;45383;-79
2021/09/15 01:36:43;;;;;;;;;6.33;6.00;;;;;;;;5056006;28;45278;-79
2021/09/15 01:39:08;;;;;;;;;7.00;6.00;;;;;;;;5036418;28;45302;-79
2021/09/15 01:41:33;;;;;;;;;9.67;5.67;;;;;;;;5054144;28;45493;-79
2021/09/15 01:43:59;;;;;;;;;7.00;7.00;;;;;;;;5055210;28;45526;-80
2021/09/15 01:46:24;;;;;;;;;6.67;6.67;;;;;;;;5054775;28;45463;-79
2021/09/15 01:48:49;;;;;;;;;7.00;6.00;;;;;;;;5055736;28;45668;-80
2021/09/15 01:51:14;;;;;;;;;6.67;6.67;;;;;;;;5054945;28;46034;-80
2021/09/15 01:53:39;;;;;;;;;12.00;8.67;;;;;;;;5054480;28;46545;-79
2021/09/15 01:56:05;;;;;;;;;7.00;6.00;;;;;;;;5053775;28;45478;-80
2021/09/15 01:58:30;;;;;;;;;10.00;7.00;;;;;;;;5054121;28;45445;-79
2021/09/15 02:00:55;;;;;;;;;10.00;9.00;;;;;;;;5036263;28;45569;-79
2021/09/15 02:03:20;;;;;;;;;9.33;7.00;;;;;;;;5054164;28;45402;-79
2021/09/15 02:05:45;;;;;;;;;9.67;9.67;;;;;;;;5055188;28;45460;-79
2021/09/15 02:08:11;;;;;;;;;7.00;6.00;;;;;;;;5047531;28;45561;-79
2021/09/15 02:10:36;;;;;;;;;10.00;7.00;;;;;;;;5053757;28;46020;-80
2021/09/15 02:13:01;;;;;;;;;7.67;7.00;;;;;;;;5055243;28;45536;-80
2021/09/15 02:15:26;;;;;;;;;10.00;6.33;;;;;;;;5054184;28;45323;-79
2021/09/15 02:17:51;;;;;;;;;10.00;7.25;;;;;;;;5054081;28;45337;-79
2021/09/15 02:20:17;;;;;;;;;8.67;8.00;;;;;;;;5053320;28;45407;-80
2021/09/15 02:22:42;;;;;;;;;10.67;8.33;;;;;;;;5053273;28;45387;-79
2021/09/15 02:25:08;;;;;;;;;8.00;7.00;;;;;;;;5054793;28;45369;-79
2021/09/15 02:27:33;;;;;;;;;8.50;7.00;;;;;;;;5053729;28;45398;-80
2021/09/15 02:29:58;;;;;;;;;9.00;8.00;;;;;;;;5053633;28;45613;-80
2021/09/15 02:32:23;;;;;;;;;9.25;8.00;;;;;;;;5053670;28;45395;-80
2021/09/15 02:34:49;;;;;;;;;9.25;6.25;;;;;;;;5054310;28;45578;-79
2021/09/15 02:37:14;;;;;;;;;11.33;7.00;;;;;;;;5048053;28;46640;-79
2021/09/15 02:39:39;;;;;;;;;11.00;8.00;;;;;;;;5053760;28;45989;-79
2021/09/15 02:42:05;;;;;;;;;8.00;8.00;;;;;;;;5054264;28;45735;-80
2021/09/15 02:44:30;;;;;;;;;7.67;7.67;;;;;;;;5053159;28;45571;-80
2021/09/15 02:46:55;;;;;;;;;8.67;7.33;;;;;;;;5032738;28;45848;-80
2021/09/15 02:49:20;;;;;;;;;8.33;5.67;;;;;;;;5054077;28;45277;-80
2021/09/15 02:51:46;;;;;;;;;12.00;7.00;;;;;;;;5055766;28;45431;-80
2021/09/15 02:54:11;;;;;;;;;9.00;9.00;;;;;;;;5053260;28;45273;-79
2021/09/15 02:56:36;;;;;;;;;10.33;8.00;;;;;;;;5054057;28;45396;-80
2021/09/15 02:59:01;;;;;;;;;7.00;7.00;;;;;;;;5053328;28;46213;-80
2021/09/15 03:01:26;;;;;;;;;8.33;7.00;;;;;;;;5053376;28;45470;-80
2021/09/15 03:03:52;;;;;;;;;8.33;7.00;;;;;;;;5054243;28;46469;-80
2021/09/15 03:06:17;;;;;;;;;9.50;7.00;;;;;;;;5053196;28;45372;-80
2021/09/15 03:08:42;;;;;;;;;11.33;8.33;;;;;;;;5035404;28;46331;-80
2021/09/15 03:11:08;;;;;;;;;7.50;6.25;;;;;;;;5052732;28;45539;-80
2021/09/15 03:13:33;;;;;;;;;9.33;9.00;;;;;;;;5054107;28;45493;-80
2021/09/15 03:15:58;;;;;;;;;8.67;7.00;;;;;;;;5036242;28;45401;-80
2021/09/15 03:18:23;;;;;;;;;10.00;7.00;;;;;;;;5052867;28;46558;-80
2021/09/15 03:20:48;;;;;;;;;11.67;8.00;;;;;;;;5057286;28;45543;-80
2021/09/15 03:23:14;;;;;;;;;5.33;5.33;;;;;;;;5053024;28;45454;-80
2021/09/15 03:25:39;;;;;;;;;8.67;8.00;;;;;;;;5053532;28;45448;-80
2021/09/15 03:28:04;;;;;;;;;9.00;7.67;;;;;;;;5054202;28;45418;-80
2021/09/15 03:30:29;;;;;;;;;8.67;7.67;;;;;;;;5052674;28;45570;-80
2021/09/15 03:32:54;;;;;;;;;8.00;6.75;;;;;;;;5035557;28;45501;-80
2021/09/15 03:35:20;;;;;;;;;8.33;8.33;;;;;;;;5052767;28;45436;-80
2021/09/15 03:37:45;;;;;;;;;9.67;7.67;;;;;;;;5052847;28;45466;-80
2021/09/15 03:40:10;;;;;;;;;7.67;7.00;;;;;;;;5053824;28;45486;-80
2021/09/15 03:42:36;;;;;;;;;9.50;7.00;;;;;;;;5053261;28;45505;-80
2021/09/15 03:45:01;;;;;;;;;7.75;7.75;;;;;;;;5052512;28;45359;-80
2021/09/15 03:47:26;;;;;;;;;9.00;8.00;;;;;;;;5052793;28;45923;-80
2021/09/15 03:49:51;;;;;;;;;11.33;8.33;;;;;;;;5052819;28;45458;-79
2021/09/15 03:52:16;;;;;;;;;10.33;7.00;;;;;;;;5052790;28;45786;-80
2021/09/15 03:54:43;;;;;;;;;10.67;8.33;;;;;;;;5053336;28;45355;-80
2021/09/15 03:57:08;;;;;;;;;8.75;7.25;;;;;;;;5032240;28;46646;-80
2021/09/15 03:59:33;;;;;;;;;9.00;6.33;;;;;;;;5051810;28;45605;-80
2021/09/15 04:01:58;;;;;;;;;8.67;7.67;;;;;;;;5050376;28;45320;-80
2021/09/15 04:04:24;;;;;;;;;7.00;7.00;;;;;;;;5034353;28;45506;-80
2021/09/15 04:06:49;;;;;;;;;8.33;7.67;;;;;;;;5052562;28;45320;-80
2021/09/15 04:09:14;;;;;;;;;7.00;7.00;;;;;;;;5052169;28;45512;-80
2021/09/15 04:11:39;;;;;;;;;10.67;7.00;;;;;;;;5052745;28;45437;-80
2021/09/15 04:14:05;;;;;;;;;7.75;7.25;;;;;;;;5052329;28;45324;-80
2021/09/15 04:16:30;;;;;;;;;10.25;8.00;;;;;;;;5052024;28;46454;-80
2021/09/15 04:18:55;;;;;;;;;8.75;7.25;;;;;;;;5052934;28;45645;-80
2021/09/15 04:21:21;;;;;;;;;8.25;7.00;;;;;;;;5031603;28;45508;-80
2021/09/15 04:31:45;;;;;;;;;9.50;8.25;;;;;;;;5048784;28;45493;-80
2021/09/15 04:34:10;;;;;;;;;9.67;8.00;;;;;;;;5053315;28;45571;-80
2021/09/15 04:36:35;;;;;;;;;10.50;7.00;;;;;;;;5031778;28;48004;-80
2021/09/15 04:39:00;;;;;;;;;8.00;6.75;;;;;;;;5051698;28;45425;-80
2021/09/15 04:41:26;;;;;;;;;11.00;9.00;;;;;;;;5052484;28;45559;-80
2021/09/15 04:43:51;;;;;;;;;11.67;8.00;;;;;;;;5034670;28;45590;-80
2021/09/15 04:46:16;;;;;;;;;7.33;7.33;;;;;;;;5037681;28;48087;-80
2021/09/15 04:48:41;;;;;;;;;10.00;7.33;;;;;;;;5034050;28;45548;-80
2021/09/15 04:51:06;;;;;;;;;12.00;10.00;;;;;;;;5051996;28;45350;-80
2021/09/15 04:53:32;;;;;;;;;13.67;10.67;;;;;;;;5052038;28;45457;-80
2021/09/15 04:55:57;;;;;;;;;12.75;9.00;;;;;;;;5051655;28;45879;-80
2021/09/15 04:58:22;;;;;;;;;8.75;8.75;;;;;;;;5052101;28;45525;-80
2021/09/15 05:00:48;;;;;;;;;11.67;11.00;;;;;;;;5059898;28;45448;-80
2021/09/15 05:03:13;;;;;;;;;9.67;8.33;;;;;;;;5053351;28;45536;-81
2021/09/15 05:05:38;;;;;;;;;8.50;7.75;;;;;;;;5051421;28;46064;-80
2021/09/15 05:08:04;;;;;;;;;8.75;8.25;;;;;;;;5053100;28;45438;-80
2021/09/15 05:10:29;;;;;;;;;8.25;8.00;;;;;;;;5055089;28;45796;-80
2021/09/15 05:12:55;;;;;;;;;9.33;7.67;;;;;;;;5056011;28;45386;-80
2021/09/15 05:15:21;;;;;;;;;10.00;7.75;;;;;;;;5054664;28;45565;-80
2021/09/15 05:17:46;;;;;;;;;12.75;9.25;;;;;;;;5053524;28;45482;-80
2021/09/15 05:20:12;;;;;;;;;8.25;8.25;;;;;;;;5028351;28;45652;-80
2021/09/15 05:22:39;;;;;;;;;11.75;8.25;;;;;;;;5055463;28;45542;-80
2021/09/15 05:25:04;;;;;;;;;7.75;7.75;;;;;;;;5055176;28;46109;-79
2021/09/15 05:27:29;;;;;;;;;7.75;7.00;;;;;;;;5054383;28;45422;-80
2021/09/15 05:29:55;;;;;;;;;8.00;8.00;;;;;;;;5055283;28;45469;-80
2021/09/15 05:32:20;;;;;;;;;12.75;10.25;;;;;;;;5054852;28;45554;-80
2021/09/15 05:34:45;;;;;;;;;9.67;8.00;;;;;;;;5054627;28;45444;-80
2021/09/15 05:37:10;;;;;;;;;9.00;6.00;;;;;;;;5056153;28;45527;-80
2021/09/15 05:39:35;;;;;;;;;9.33;8.00;;;;;;;;5035908;28;45483;-80
2021/09/15 05:42:01;;;;;;;;;10.00;8.00;;;;;;;;5053491;28;45577;-80
2021/09/15 05:44:26;;;;;;;;;8.00;7.33;;;;;;;;5037071;28;45518;-80
2021/09/15 05:46:51;;;;;;;;;10.33;9.00;;;;;;;;5034194;28;45659;-80
2021/09/15 05:49:16;;;;;;;;;10.00;7.33;;;;;;;;5033466;28;45422;-80
2021/09/15 05:51:42;;;;;;;;;10.33;7.00;;;;;;;;5054346;28;45431;-80
2021/09/15 05:54:08;;;;;;;;;8.33;7.00;;;;;;;;5053317;28;45414;-80
2021/09/15 05:56:33;;;;;;;;;9.00;8.00;;;;;;;;5054623;28;45444;-80
2021/09/15 05:58:58;;;;;;;;;6.33;6.33;;;;;;;;5053706;28;47515;-80
2021/09/15 06:01:24;;;;;;;;;9.00;8.33;;;;;;;;5054266;28;45399;-80
2021/09/15 06:03:49;;;;;;;;;11.33;8.33;;;;;;;;5038098;28;48272;-80
2021/09/15 06:06:14;;;;;;;;;8.33;8.33;;;;;;;;5054601;28;45437;-80
2021/09/15 06:08:39;;;;;;;;;14.33;9.00;;;;;;;;5028886;28;45459;-80
2021/09/15 06:11:04;;;;;;;;;9.67;9.00;;;;;;;;5054347;28;45443;-80
2021/09/15 06:13:30;;;;;;;;;9.00;7.00;;;;;;;;5054132;28;45364;-80
2021/09/15 06:15:55;;;;;;;;;10.00;9.00;;;;;;;;5055147;28;45434;-80
2021/09/15 06:18:20;;;;;;;;;6.00;6.00;;;;;;;;5054216;28;45709;-80
2021/09/15 06:20:45;;;;;;;;;14.00;8.67;;;;;;;;5054265;28;45466;-80
2021/09/15 06:23:11;;;;;;;;;7.00;7.00;;;;;;;;5029037;28;48417;-79
2021/09/15 06:25:37;;;;;;;;;7.25;6.25;;;;;;;;5054036;28;45510;-80
2021/09/15 06:28:02;;;;;;;;;5.00;5.00;;;;;;;;5053881;28;45458;-80
2021/09/15 06:30:27;;;;;;;;;5.25;5.25;;;;;;;;5053237;28;45622;-80
2021/09/15 06:32:53;;;;;;;;;6.00;5.00;;;;;;;;5053728;28;45460;-79
2021/09/15 06:35:18;;;;;;;;;8.00;5.00;;;;;;;;5051495;28;45465;-80
2021/09/15 06:37:43;;;;;;;;;4.25;4.25;;;;;;;;5050735;28;45814;-79
2021/09/15 06:40:09;;;;;;;;;5.67;5.67;;;;;;;;5048831;28;45481;-80
2021/09/15 06:42:34;;;;;;;;;6.50;5.00;;;;;;;;5034317;28;46134;-80
2021/09/15 06:44:59;;;;;;;;;5.00;5.00;;;;;;;;5053020;28;45346;-80
2021/09/15 06:47:25;;;;;;;;;7.00;7.00;;;;;;;;5053886;28;45442;-80
2021/09/15 06:49:50;;;;;;;;;6.00;6.00;;;;;;;;5053705;28;45428;-80
2021/09/15 06:52:15;;;;;;;;;5.67;5.67;;;;;;;;5028044;28;48803;-79
2021/09/15 06:54:40;;;;;;;;;6.00;4.00;;;;;;;;5053381;28;45502;-80
2021/09/15 06:57:06;;;;;;;;;7.00;5.00;;;;;;;;5052998;28;46522;-80
2021/09/15 06:59:31;;;;;;;;;7.00;6.00;;;;;;;;5053452;28;45521;-80
2021/09/15 07:01:56;;;;;;;;;5.00;5.00;;;;;;;;5053646;28;45529;-80
2021/09/15 07:04:21;;;;;;;;;6.00;6.00;;;;;;;;5053466;28;45480;-80
2021/09/15 07:06:47;;;;;;;;;6.33;6.33;;;;;;;;5053349;28;45801;-79
2021/09/15 07:09:12;;;;;;;;;6.75;5.25;;;;;;;;5033971;28;45403;-80
2021/09/15 07:11:37;;;;;;;;;9.75;7.50;;;;;;;;5052817;28;45392;-80
2021/09/15 07:14:05;;;;;;;;;6.33;6.33;;;;;;;;5033950;28;45478;-80
2021/09/15 07:16:31;;;;;;;;;10.00;9.50;;;;;;;;5026365;28;45569;-80
2021/09/15 07:18:56;;;;;;;;;9.50;9.00;;;;;;;;5053200;28;45450;-80
2021/09/15 07:21:21;;;;;;;;;8.67;7.00;;;;;;;;5051745;28;46797;-80
2021/09/15 07:23:46;;;;;;;;;7.33;6.33;;;;;;;;5052917;28;45529;-80
2021/09/15 07:26:12;;;;;;;;;8.67;7.00;;;;;;;;5052910;28;45530;-80
2021/09/15 07:28:37;;;;;;;;;9.00;8.00;;;;;;;;5052984;28;45565;-80
2021/09/15 07:31:02;;;;;;;;;9.33;8.00;;;;;;;;5051791;28;45529;-77
2021/09/15 07:33:32;;;;;;;;;12.67;9.00;;;;;;;;5045583;28;45462;-81
2021/09/15 07:35:57;;;;;;;;;9.50;8.50;;;;;;;;5049755;28;45494;-80
2021/09/15 07:38:22;;;;;;;;;9.50;8.00;;;;;;;;5053191;28;45511;-80
2021/09/15 07:40:48;;;;;;;;;9.00;7.33;;;;;;;;5042576;28;46015;-80
2021/09/15 07:43:13;;;;;;;;;9.33;8.00;;;;;;;;5053434;28;45333;-81
2021/09/15 07:45:38;;;;;;;;;9.00;7.75;;;;;;;;5052753;28;46694;-80
2021/09/15 07:48:04;;;;;;;;;9.33;7.67;;;;;;;;5032271;28;45835;-79
2021/09/15 07:50:29;;;;;;;;;8.25;8.25;;;;;;;;5052988;28;45422;-79
2021/09/15 07:52:54;;;;;;;;;10.33;7.00;;;;;;;;5053319;28;45759;-80
2021/09/15 07:55:19;;;;;;;;;11.67;9.00;;;;;;;;5035690;28;45436;-80
2021/09/15 07:57:44;;;;;;;;;7.67;7.67;;;;;;;;5052951;28;45542;-80
2021/09/15 08:00:10;;;;;;;;;9.00;5.00;;;;;;;;5053000;28;45296;-80
2021/09/15 08:02:35;;;;;;;;;6.25;6.25;;;;;;;;5053506;28;45359;-80
2021/09/15 08:05:01;;;;;;;;;6.00;6.00;;;;;;;;5031143;28;45573;-80
2021/09/15 08:07:26;;;;;;;;;6.00;6.00;;;;;;;;5031563;28;45560;-80
2021/09/15 08:09:51;;;;;;;;;7.00;6.00;;;;;;;;5046920;28;46191;-80
2021/09/15 08:12:16;;;;;;;;;5.00;4.00;;;;;;;;5047887;28;45393;-80
2021/09/15 08:14:42;;;;;;;;;4.00;2.75;;;;;;;;5048424;28;45524;-80
2021/09/15 08:17:07;;;;;;;;;3.00;3.00;;;;;;;;5050899;28;45654;-80
2021/09/15 08:19:32;;;;;;;;;3.50;3.00;;;;;;;;5050844;28;45544;-80
2021/09/15 08:21:58;;;;;;;;;3.33;3.33;;;;;;;;5052814;28;45497;-80
2021/09/15 08:24:23;;;;;;;;;5.00;5.00;;;;;;;;5047703;28;45544;-80
2021/09/15 08:26:48;;;;;;;;;4.00;4.00;;;;;;;;5022563;28;45829;-80
2021/09/15 08:29:14;;;;;;;;;4.00;4.00;;;;;;;;5030216;28;46936;-80
2021/09/15 08:31:39;;;;;;;;;3.00;3.00;;;;;;;;5050282;28;45395;-85
2021/09/15 08:34:04;;;;;;;;;5.00;3.00;;;;;;;;5046972;28;45288;-81
2021/09/15 08:36:29;;;;;;;;;3.33;3.33;;;;;;;;5046639;28;45526;-78
2021/09/15 08:38:54;;;;;;;;;3.33;3.33;;;;;;;;5052165;28;46744;-80
2021/09/15 08:41:20;;;;;;;;;1.33;1.33;;;;;;;;5046052;28;45541;-80
2021/09/15 08:43:45;;;;;;;;;3.33;1.33;;;;;;;;5035076;28;46501;-79
2021/09/15 08:46:11;;;;;;;;;3.50;2.00;;;;;;;;5056161;28;45473;-79
2021/09/15 08:48:39;;;;;;;;;2.00;2.00;;;;;;;;5054854;28;45888;-80
2021/09/15 08:51:06;;;;;;;;;2.00;1.00;;;;;;;;5053812;28;45525;-79
2021/09/15 08:53:31;;;;;;;;;3.50;1.00;;;;;;;;5054044;28;45974;-79
2021/09/15 08:55:56;;;;;;;;;1.67;1.67;;;;;;;;5040946;28;49475;-79
2021/09/15 08:58:21;;;;;;;;;3.00;1.00;;;;;;;;5053074;28;45304;-79
2021/09/15 09:00:47;;;;;;;;;1.00;1.00;;;;;;;;5054672;28;45494;-79
2021/09/15 09:03:12;;;;;;;;;1.00;1.00;;;;;;;;5054721;28;45558;-79
2021/09/15 09:05:37;;;;;;;;;4.00;2.00;;;;;;;;5044472;28;45638;-80
2021/09/15 09:08:03;;;;;;;;;3.00;1.25;;;;;;;;5054128;28;45978;-79
2021/09/15 09:10:35;;;;;;;;;3.00;1.75;;;;;;;;5051947;28;45532;-79
2021/09/15 09:13:01;;;;;;;;;4.50;2.75;;;;;;;;5053723;28;45511;-80
2021/09/15 09:15:27;;;;;;;;;2.67;2.33;;;;;;;;5054019;28;45549;-79
2021/09/15 09:17:53;;;;;;;;;3.75;3.75;;;;;;;;5053205;28;46335;-79
2021/09/15 09:20:19;;;;;;;;;5.00;4.00;;;;;;;;5052633;28;45961;-79
2021/09/15 09:22:58;;;;;;;;;6.00;6.00;;;;;;;;5052308;28;45379;-79
2021/09/15 09:25:23;;;;;;;;;14.25;9.75;;;;;;;;5050075;28;45448;-79
2021/09/15 09:27:49;;;;;;;;;12.00;7.75;;;;;;;;5054493;28;45490;-79
2021/09/15 09:30:31;;;;;;;;;10.50;8.75;;;;;;;;5049010;28;45735;-79
2021/09/15 09:32:56;;;;;;;;;8.25;8.00;;;;;;;;5049075;28;45472;-79
2021/09/15 09:35:21;;;;;;;;;8.50;8.25;;;;;;;;5055571;28;45501;-78
2021/09/15 09:37:47;;;;;;;;;6.33;6.33;;;;;;;;5049422;28;46498;-79
2021/09/15 09:40:18;;;;;;;;;11.67;8.00;;;;;;;;5061669;28;45383;-80
2021/09/15 09:42:43;;;;;;;;;9.75;9.50;;;;;;;;5055268;28;45454;-79
2021/09/15 09:45:10;;;;;;;;;12.67;9.67;;;;;;;;5050998;28;48309;-79
2021/09/15 09:47:36;;;;;;;;;9.50;9.50;;;;;;;;5050319;28;46506;-79
2021/09/15 09:50:08;;;;;;;;;12.25;10.50;;;;;;;;5050488;28;45411;-79
2021/09/15 09:52:52;;;;;;;;;11.50;11.50;;;;;;;;5032482;28;45482;-80
2021/09/15 09:55:18;;;;;;;;;17.50;12.25;;;;;;;;5048259;28;45569;-79
2021/09/15 09:57:43;;;;;;;;;10.00;10.00;;;;;;;;5053046;28;45386;-79
2021/09/15 10:00:09;;;;;;;;;15.25;11.00;;;;;;;;5050748;28;45525;-79
2021/09/15 10:02:34;;;;;;;;;12.75;11.00;;;;;;;;5054501;28;45518;-79
2021/09/15 10:05:02;;;;;;;;;12.00;9.00;;;;;;;;5054507;28;45409;-80
2021/09/15 10:07:27;;;;;;;;;12.50;10.50;;;;;;;;5054701;28;46503;-80
2021/09/15 10:09:53;;;;;;;;;15.25;12.25;;;;;;;;5055473;28;45338;-80
2021/09/15 10:12:18;;;;;;;;;11.00;9.00;;;;;;;;5052287;28;45461;-80
2021/09/15 10:14:43;;;;;;;;;10.50;9.25;;;;;;;;5049487;28;45391;-80
2021/09/15 10:17:14;;;;;;;;;11.67;10.67;;;;;;;;5054321;28;46093;-80
2021/09/15 10:19:40;;;;;;;;;11.75;10.00;;;;;;;;5054222;28;45902;-79
2021/09/15 10:22:06;;;;;;;;;10.75;10.00;;;;;;;;5055117;28;45292;-80
2021/09/15 10:24:50;;;;;;;;;12.50;9.00;;;;;;;;5054358;28;45660;-80
2021/09/15 10:27:16;;;;;;;;;11.50;11.50;;;;;;;;5054403;28;45466;-80
2021/09/15 10:29:42;;;;;;;;;12.25;10.50;;;;;;;;5054315;28;45373;-79
2021/09/15 10:32:11;;;;;;;;;12.75;9.75;;;;;;;;5054308;28;45558;-80
2021/09/15 10:34:39;;;;;;;;;13.00;11.00;;;;;;;;5054570;28;49056;-80
2021/09/15 10:37:13;;;;;;;;;9.00;9.00;;;;;;;;5054589;28;45587;-79
2021/09/15 10:39:55;;;;;;;;;14.25;9.75;;;;;;;;5052285;28;45376;-79
2021/09/15 10:42:39;;;;;;;;;12.50;10.50;;;;;;;;5053918;28;45525;-79
2021/09/15 10:45:10;;;;;;;;;10.75;9.25;;;;;;;;5053913;28;45562;-79
2021/09/15 10:47:36;;;;;;;;;10.00;10.00;;;;;;;;5054317;28;46183;-79
2021/09/15 10:50:01;;;;;;;;;8.25;8.25;;;;;;;;5036166;28;45422;-79
2021/09/15 10:52:27;;;;;;;;;12.67;10.33;;;;;;;;5054031;28;45437;-80
2021/09/15 10:54:56;;;;;;;;;12.25;10.50;;;;;;;;5054504;28;45506;-79
2021/09/15 10:57:32;;;;;;;;;15.25;13.00;;;;;;;;5035564;28;47083;-79
2021/09/15 11:00:10;;;;;;;;;8.75;6.75;;;;;;;;5054177;28;45363;-79
2021/09/15 11:02:41;;;;;;;;;29.50;28.00;;;;;;;;5021785;28;45518;-79
2021/09/15 11:05:25;;;;;;;;;15.50;14.00;;;;;;;;5018152;28;45625;-79
2021/09/15 11:07:50;;;;;;;;;26.75;21.50;;;;;;;;5027223;28;47596;-79
2021/09/15 11:10:33;;;;;;;;;17.33;13.67;;;;;;;;5010275;28;45658;-79
2021/09/15 11:12:59;;;;;;;;;16.25;13.25;;;;;;;;5022865;28;45411;-79
2021/09/15 11:15:25;;;;;;;;;12.00;8.25;;;;;;;;5015162;28;45418;-79
2021/09/15 11:17:51;;;;;;;;;8.75;7.75;;;;;;;;5012909;28;45698;-79
2021/09/15 11:20:20;;;;;;;;;9.00;7.00;;;;;;;;5012727;28;45576;-79
2021/09/15 11:22:46;;;;;;;;;7.25;6.00;;;;;;;;5020409;28;45526;-79
2021/09/15 11:25:15;;;;;;;;;7.00;7.00;;;;;;;;5014363;28;45486;-79
2021/09/15 11:27:40;;;;;;;;;7.00;7.00;;;;;;;;5012045;28;48148;-79
2021/09/15 11:30:05;;;;;;;;;9.00;9.00;;;;;;;;5017330;28;45400;-79
2021/09/15 11:32:31;;;;;;;;;5.75;5.75;;;;;;;;5019829;28;45264;-80
2021/09/15 11:34:56;;;;;;;;;7.33;7.33;;;;;;;;5023219;28;45434;-79
2021/09/15 11:37:25;;;;;;;;;10.00;8.00;;;;;;;;5015527;28;45366;-79
2021/09/15 11:39:54;;;;;;;;;8.50;7.75;;;;;;;;5014642;28;45777;-79
2021/09/15 11:42:21;;;;;;;;;9.00;7.00;;;;;;;;5017242;28;45479;-79
2021/09/15 11:44:47;;;;;;;;;12.00;10.00;;;;;;;;5015319;28;45623;-79
2021/09/15 11:47:12;;;;;;;;;11.00;10.00;;;;;;;;5013230;28;45422;-79
2021/09/15 11:49:37;;;;;;;;;9.67;9.67;;;;;;;;5012053;28;45604;-79
2021/09/15 11:52:03;;;;;;;;;7.33;7.33;;;;;;;;5023000;28;45878;-79
2021/09/15 11:54:28;;;;;;;;;10.00;7.50;;;;;;;;5019927;28;45658;-80
2021/09/15 11:57:05;;;;;;;;;8.50;7.25;;;;;;;;5006601;28;45415;-79
2021/09/15 11:59:30;;;;;;;;;9.25;9.25;;;;;;;;5011025;28;45870;-79
2021/09/15 12:01:56;;;;;;;;;9.50;9.50;;;;;;;;5025701;28;45489;-79
2021/09/15 12:04:22;;;;;;;;;9.25;7.75;;;;;;;;5048086;28;45499;-79
2021/09/15 12:06:47;;;;;;;;;7.50;7.50;;;;;;;;5030519;28;47948;-79
2021/09/15 12:09:14;;;;;;;;;8.00;7.25;;;;;;;;5045805;28;45419;-79
2021/09/15 12:11:40;;;;;;;;;10.75;9.50;;;;;;;;5029965;28;45517;-79
2021/09/15 12:14:06;;;;;;;;;7.25;7.00;;;;;;;;5050519;28;45557;-79
2021/09/15 12:16:33;;;;;;;;;7.25;7.25;;;;;;;;5048163;28;45595;-79
2021/09/15 12:18:59;;;;;;;;;8.75;7.50;;;;;;;;5051126;28;45932;-79
2021/09/15 12:21:25;;;;;;;;;8.00;5.25;;;;;;;;5036863;28;45489;-79
2021/09/15 12:23:51;;;;;;;;;5.25;5.25;;;;;;;;5050808;28;45825;-79
2021/09/15 12:26:26;;;;;;;;;6.00;6.00;;;;;;;;5058880;28;45465;-80
2021/09/15 12:29:00;;;;;;;;;5.00;5.00;;;;;;;;5052117;28;45754;-80
2021/09/15 12:31:25;;;;;;;;;8.00;8.00;;;;;;;;5056576;28;45307;-80
2021/09/15 12:33:51;;;;;;;;;6.00;5.00;;;;;;;;5052416;28;45402;-80
2021/09/15 12:36:20;;;;;;;;;6.75;5.00;;;;;;;;5030769;28;48624;-80
2021/09/15 12:38:51;;;;;;;;;7.50;7.50;;;;;;;;5059898;28;45554;-80
2021/09/15 12:41:16;;;;;;;;;8.00;7.75;;;;;;;;5055498;28;45528;-80
2021/09/15 12:43:42;;;;;;;;;6.00;5.25;;;;;;;;5055713;28;45291;-80
2021/09/15 12:46:27;;;;;;;;;9.33;7.67;;;;;;;;5047410;28;45446;-80
2021/09/15 12:48:53;;;;;;;;;13.25;9.25;;;;;;;;5052098;28;45375;-81
2021/09/15 12:51:19;;;;;;;;;13.00;11.25;;;;;;;;5055440;28;45536;-81
2021/09/15 12:53:45;;;;;;;;;16.50;13.00;;;;;;;;5037535;28;45342;-80
2021/09/15 12:56:10;;;;;;;;;18.25;13.25;;;;;;;;5055024;28;45502;-83
2021/09/15 12:58:35;;;;;;;;;13.33;13.33;;;;;;;;5037084;28;45796;-79
2021/09/15 13:01:01;;;;;;;;;16.67;15.00;;;;;;;;5055368;28;45512;-80
2021/09/15 13:03:37;;;;;;;;;17.50;14.50;;;;;;;;5055857;28;45594;-80
2021/09/15 13:06:02;;;;;;;;;20.75;18.50;;;;;;;;5055526;28;46012;-80
2021/09/15 13:08:27;;;;;;;;;21.67;16.67;;;;;;;;5055393;28;45311;-79
2021/09/15 13:10:53;;;;;;;;;23.50;19.00;;;;;;;;5054943;28;45514;-80
2021/09/15 13:13:20;;;;;;;;;20.75;19.75;;;;;;;;5056135;28;45332;-80
2021/09/15 13:15:46;;;;;;;;;20.00;18.75;;;;;;;;5036830;28;47277;-80
2021/09/15 13:18:11;;;;;;;;;23.50;19.25;;;;;;;;5036278;28;45424;-80
2021/09/15 13:20:37;;;;;;;;;23.50;20.50;;;;;;;;5054947;28;45493;-80
2021/09/15 13:23:02;;;;;;;;;22.00;22.00;;;;;;;;5055094;28;45453;-80
2021/09/15 13:25:27;;;;;;;;;27.33;24.33;;;;;;;;5055459;28;46243;-82
2021/09/15 13:27:52;;;;;;;;;21.75;20.00;;;;;;;;5055734;28;45434;-82
2021/09/15 13:30:18;;;;;;;;;22.50;20.50;;;;;;;;5052885;28;45751;-83
2021/09/15 13:32:43;;;;;;;;;23.33;20.00;;;;;;;;5054723;28;45711;-81
2021/09/15 13:35:09;;;;;;;;;22.25;19.75;;;;;;;;5036542;28;48163;-83
2021/09/15 13:37:34;;;;;;;;;25.00;22.50;;;;;;;;5036498;28;45394;-83
2021/09/15 13:39:59;;;;;;;;;26.75;23.25;;;;;;;;5056115;28;45487;-83
2021/09/15 13:42:25;;;;;;;;;32.00;25.00;;;;;;;;5055322;28;45325;-83
2021/09/15 13:44:50;;;;;;;;;28.50;24.50;;;;;;;;5054507;28;46146;-82
2021/09/15 13:47:15;;;;;;;;;34.67;26.67;;;;;;;;5055056;28;45770;-83
2021/09/15 13:49:41;;;;;;;;;28.00;24.67;;;;;;;;5055086;28;45638;-82
2021/09/15 13:52:09;;;;;;;;;30.00;27.75;;;;;;;;5055883;28;45420;-82
2021/09/15 13:54:34;;;;;;;;;32.25;27.25;;;;;;;;5036702;28;46514;-82
2021/09/15 13:56:59;;;;;;;;;34.50;23.75;;;;;;;;5054922;28;45430;-83
2021/09/15 13:59:25;;;;;;;;;37.33;27.00;;;;;;;;5036332;28;45438;-82
2021/09/15 14:01:51;;;;;;;;;37.00;28.33;;;;;;;;5054447;28;45659;-82
2021/09/15 14:04:16;;;;;;;;;31.75;27.75;;;;;;;;5055367;28;45401;-83
2021/09/15 14:06:41;;;;;;;;;30.00;28.00;;;;;;;;5055191;28;45512;-83
2021/09/15 14:09:06;;;;;;;;;32.67;28.67;;;;;;;;5036619;28;45443;-82
2021/09/15 14:11:31;;;;;;;;;38.67;31.00;;;;;;;;5054766;28;45657;-82
2021/09/15 14:13:57;;;;;;;;;32.33;28.33;;;;;;;;5051619;28;45361;-83
2021/09/15 14:16:22;;;;;;;;;36.33;30.67;;;;;;;;5036274;28;45714;-82
2021/09/15 14:18:47;;;;;;;;;44.00;31.00;;;;;;;;5055551;28;45790;-82
2021/09/15 14:21:12;;;;;;;;;35.00;31.00;;;;;;;;5054655;28;45508;-83
2021/09/15 14:23:37;;;;;;;;;38.33;29.67;;;;;;;;5053829;28;46046;-82
2021/09/15 14:26:03;;;;;;;;;41.50;30.00;;;;;;;;5054603;28;45537;-83
2021/09/15 14:28:29;;;;;;;;;45.00;33.00;;;;;;;;5054647;28;45327;-82
2021/09/15 14:30:54;;;;;;;;;40.75;31.00;;;;;;;;5054790;28;45522;-82
2021/09/15 14:33:19;;;;;;;;;43.00;32.75;;;;;;;;5036032;28;46061;-82
2021/09/15 14:35:45;;;;;;;;;37.00;31.67;;;;;;;;5054500;28;45553;-82
2021/09/15 14:38:10;;;;;;;;;37.75;32.25;;;;;;;;5054207;28;45296;-82